createdAt,value
2023-01-30T00:00:43.086Z,20.95
2023-01-30T00:03:46.638Z,22.60
2023-01-30T00:06:49.001Z,21.48
2023-01-30T00:09:51.632Z,24.45
2023-01-30T00:12:53.933Z,26.40
2023-01-30T00:15:56.605Z,25.50
2023-01-30T00:18:59.010Z,25.93
2023-01-30T00:22:01.803Z,22.08
2023-01-30T00:25:04.608Z,23.65
2023-01-30T00:28:07.372Z,23.08
2023-01-30T00:31:10.370Z,23.80
2023-01-30T00:34:13.015Z,20.57
2023-01-30T00:37:15.466Z,25.90
2023-01-30T00:40:18.813Z,25.00
2023-01-30T00:43:40.774Z,24.83
2023-01-30T00:47:02.219Z,26.98
2023-01-30T00:50:05.305Z,26.70
2023-01-30T00:53:15.346Z,25.95
2023-01-30T00:56:17.731Z,23.38
2023-01-30T00:59:20.380Z,20.80
2023-01-30T01:02:22.810Z,23.62
2023-01-30T01:05:26.176Z,23.13
2023-01-30T01:08:28.653Z,21.73
2023-01-30T01:11:31.856Z,24.58
2023-01-30T01:14:34.821Z,20.83
2023-01-30T01:17:38.018Z,20.60
2023-01-30T01:20:40.430Z,22.60
2023-01-30T01:23:43.115Z,18.73
2023-01-30T01:26:45.598Z,22.27
2023-01-30T01:29:48.356Z,21.37
2023-01-30T01:32:51.511Z,20.62
2023-01-30T01:35:57.359Z,21.67
2023-01-30T01:38:59.797Z,21.37
2023-01-30T01:42:02.398Z,20.48
2023-01-30T01:45:13.093Z,24.17
2023-01-30T01:48:22.565Z,23.20
2023-01-30T01:51:40.792Z,21.47
2023-01-30T01:54:46.232Z,21.77
2023-01-30T01:57:57.068Z,24.50
2023-01-30T02:01:01.930Z,25.73
2023-01-30T02:04:09.101Z,20.83
2023-01-30T02:07:11.544Z,22.73
2023-01-30T02:10:19.362Z,24.58
2023-01-30T02:13:23.089Z,21.48
2023-01-30T02:16:25.509Z,26.08
2023-01-30T02:19:50.910Z,23.08
2023-01-30T02:23:30.743Z,26.33
2023-01-30T02:26:55.374Z,23.38
2023-01-30T02:30:15.981Z,27.25
2023-01-30T02:33:57.418Z,26.92
2023-01-30T02:37:21.847Z,24.60
2023-01-30T02:40:36.690Z,22.77
2023-01-30T02:43:54.097Z,28.30
2023-01-30T02:47:06.675Z,33.75
2023-01-30T02:50:42.001Z,28.00
2023-01-30T02:53:48.382Z,28.65
2023-01-30T02:56:53.509Z,30.10
2023-01-30T03:00:01.823Z,28.87
2023-01-30T03:03:40.591Z,30.20
2023-01-30T03:07:16.565Z,28.90
2023-01-30T03:10:31.880Z,27.92
2023-01-30T03:14:11.370Z,28.47
2023-01-30T03:17:17.219Z,25.92
2023-01-30T03:20:20.756Z,25.62
2023-01-30T03:23:23.219Z,26.42
2023-01-30T03:26:33.113Z,26.52
2023-01-30T03:29:35.706Z,23.67
2023-01-30T03:32:38.368Z,22.70
2023-01-30T03:35:42.576Z,23.38
2023-01-30T03:38:48.362Z,26.33
2023-01-30T03:41:53.048Z,26.27
2023-01-30T03:44:56.312Z,26.17
2023-01-30T03:47:58.721Z,27.80
2023-01-30T03:51:01.467Z,28.17
2023-01-30T03:54:04.633Z,29.35
2023-01-30T03:57:07.555Z,29.23
2023-01-30T04:00:10.676Z,28.47
2023-01-30T04:03:18.792Z,28.02
2023-01-30T04:06:21.601Z,25.52
2023-01-30T04:09:24.717Z,31.48
2023-01-30T04:12:27.675Z,26.70
2023-01-30T04:15:30.350Z,29.23
2023-01-30T04:18:33.921Z,26.15
2023-01-30T04:21:36.407Z,29.63
2023-01-30T04:24:39.288Z,31.30
2023-01-30T04:27:41.991Z,30.70
2023-01-30T04:30:45.511Z,25.23
2023-01-30T04:33:48.837Z,27.10
2023-01-30T04:36:51.572Z,39.65
2023-01-30T04:39:54.057Z,28.87
2023-01-30T04:42:57.216Z,29.75
2023-01-30T04:46:02.339Z,28.63
2023-01-30T04:49:05.174Z,26.05
2023-01-30T04:52:07.582Z,24.85
2023-01-30T04:55:11.788Z,28.02
2023-01-30T04:58:15.116Z,25.65
2023-01-30T05:01:25.261Z,30.33
2023-01-30T05:04:27.753Z,28.38
2023-01-30T05:07:30.444Z,27.95
2023-01-30T05:10:32.899Z,28.55
2023-01-30T05:13:35.610Z,31.45
2023-01-30T05:16:37.953Z,29.17
2023-01-30T05:19:40.528Z,34.00
2023-01-30T05:22:42.807Z,29.08
2023-01-30T05:25:45.447Z,28.17
2023-01-30T05:28:55.828Z,29.02
2023-01-30T05:31:58.478Z,31.30
2023-01-30T05:35:01.125Z,30.88
2023-01-30T05:38:03.951Z,30.77
2023-01-30T05:41:08.345Z,28.42
2023-01-30T05:44:13.013Z,30.35
2023-01-30T05:47:15.333Z,26.97
2023-01-30T05:50:18.232Z,32.53
2023-01-30T05:53:22.302Z,27.55
2023-01-30T05:56:25.240Z,35.20
2023-01-30T05:59:27.565Z,34.72
2023-01-30T06:02:31.381Z,33.60
2023-01-30T06:08:36.453Z,28.35
2023-01-30T06:11:39.236Z,31.52
2023-01-30T06:14:41.726Z,30.25
2023-01-30T06:17:44.432Z,28.83
2023-01-30T06:20:51.280Z,29.40
2023-01-30T06:23:53.934Z,29.58
2023-01-30T06:26:56.388Z,32.95
2023-01-30T06:29:59.101Z,33.60
2023-01-30T06:33:01.515Z,35.47
2023-01-30T06:36:04.566Z,30.35
2023-01-30T06:39:06.961Z,31.45
2023-01-30T06:42:09.635Z,34.78
2023-01-30T06:45:13.421Z,32.75
2023-01-30T06:48:16.103Z,39.07
2023-01-30T06:51:18.557Z,32.67
2023-01-30T06:54:21.145Z,29.67
2023-01-30T06:57:23.484Z,42.08
2023-01-30T07:00:26.111Z,29.85
2023-01-30T07:03:28.596Z,36.73
2023-01-30T07:06:31.681Z,30.77
2023-01-30T07:09:33.986Z,32.35
2023-01-30T07:12:37.005Z,35.28
2023-01-30T07:15:39.419Z,32.58
2023-01-30T07:18:42.044Z,33.77
2023-01-30T07:21:44.413Z,29.98
2023-01-30T07:24:47.072Z,28.80
2023-01-30T07:27:58.180Z,34.78
2023-01-30T07:31:01.441Z,32.88
2023-01-30T07:34:03.823Z,41.30
2023-01-30T07:37:06.617Z,31.80
2023-01-30T07:40:10.333Z,27.30
2023-01-30T07:43:13.782Z,29.98
2023-01-30T07:46:16.375Z,31.48
2023-01-30T07:49:18.989Z,33.53
2023-01-30T07:52:21.353Z,31.02
2023-01-30T07:55:24.300Z,31.35
2023-01-30T07:58:26.678Z,36.88
2023-01-30T08:01:29.453Z,33.60
2023-01-30T08:04:32.347Z,35.37
2023-01-30T08:07:34.771Z,32.83
2023-01-30T08:10:37.462Z,30.17
2023-01-30T08:13:39.870Z,29.67
2023-01-30T08:16:42.605Z,35.22
2023-01-30T08:19:45.000Z,35.57
2023-01-30T08:22:47.647Z,32.08
2023-01-30T08:25:49.973Z,30.25
2023-01-30T08:28:55.926Z,30.27
2023-01-30T08:31:59.555Z,31.40
2023-01-30T08:35:02.321Z,30.33
2023-01-30T08:38:08.986Z,41.05
2023-01-30T08:41:11.837Z,29.83
2023-01-30T08:44:14.253Z,27.02
2023-01-30T08:47:16.914Z,30.45
2023-01-30T08:50:19.622Z,25.90
2023-01-30T08:53:23.334Z,29.87
2023-01-30T08:56:26.881Z,30.08
2023-01-30T08:59:29.799Z,26.23
2023-01-30T09:02:32.422Z,30.95
2023-01-30T09:05:35.171Z,26.93
2023-01-30T09:08:37.597Z,30.00
2023-01-30T09:11:40.180Z,28.77
2023-01-30T09:14:42.600Z,31.90
2023-01-30T09:17:45.262Z,34.63
2023-01-30T09:20:47.817Z,34.97
2023-01-30T09:23:50.702Z,30.05
2023-01-30T09:26:54.116Z,33.95
2023-01-30T09:29:56.883Z,27.45
2023-01-30T09:32:59.240Z,30.10
2023-01-30T09:36:01.940Z,33.50
2023-01-30T09:39:04.465Z,34.45
2023-01-30T09:42:13.141Z,32.88
2023-01-30T09:45:30.924Z,31.80
2023-01-30T09:48:43.344Z,34.53
2023-01-30T09:51:55.966Z,31.53
2023-01-30T09:55:26.598Z,33.05
2023-01-30T09:58:54.990Z,28.80
2023-01-30T10:02:24.367Z,36.72
2023-01-30T10:05:51.375Z,32.15
2023-01-30T10:09:37.025Z,38.40
2023-01-30T10:13:14.794Z,32.08
2023-01-30T10:16:27.765Z,30.20
2023-01-30T10:19:55.120Z,31.02
2023-01-30T10:23:02.179Z,30.92
2023-01-30T10:26:15.372Z,33.23
2023-01-30T10:29:26.649Z,29.05
2023-01-30T10:32:41.775Z,29.58
2023-01-30T10:35:44.895Z,34.65
2023-01-30T10:38:50.743Z,32.75
2023-01-30T10:42:07.007Z,31.10
2023-01-30T10:45:37.009Z,27.30
2023-01-30T10:48:54.466Z,29.08
2023-01-30T10:52:29.681Z,27.58
2023-01-30T10:55:44.638Z,33.03
2023-01-30T10:59:16.144Z,28.90
2023-01-30T11:02:33.120Z,32.67
2023-01-30T11:05:50.963Z,27.87
2023-01-30T11:08:54.958Z,31.42
2023-01-30T11:12:00.334Z,29.98
2023-01-30T11:15:05.955Z,26.20
2023-01-30T11:19:14.026Z,29.87
2023-01-30T11:21:43.616Z,28.60
2023-01-30T11:24:47.016Z,28.30
2023-01-30T11:28:06.345Z,26.30
2023-01-30T11:31:40.367Z,28.30
2023-01-30T11:34:44.118Z,30.48
2023-01-30T11:37:46.977Z,27.05
2023-01-30T11:40:49.546Z,26.87
2023-01-30T11:44:00.629Z,30.37
2023-01-30T11:47:26.532Z,26.70
2023-01-30T11:50:44.878Z,27.90
2023-01-30T11:53:54.343Z,28.60
2023-01-30T11:56:59.032Z,30.67
2023-01-30T12:00:01.676Z,27.77
2023-01-30T12:03:18.511Z,34.40
2023-01-30T12:06:30.045Z,33.83
2023-01-30T12:09:35.596Z,24.98
2023-01-30T12:12:47.024Z,24.30
2023-01-30T12:15:57.182Z,28.40
2023-01-30T12:19:12.988Z,31.03
2023-01-30T12:22:39.282Z,31.33
2023-01-30T12:25:57.206Z,28.10
2023-01-30T12:29:23.875Z,28.35
2023-01-30T12:32:28.970Z,30.23
2023-01-30T12:35:40.402Z,32.93
2023-01-30T12:38:55.307Z,28.50
2023-01-30T12:42:25.159Z,26.85
2023-01-30T12:45:32.782Z,35.35
2023-01-30T12:49:11.066Z,30.50
2023-01-30T12:52:46.748Z,31.77
2023-01-30T12:56:02.864Z,30.27
2023-01-30T12:59:48.436Z,27.33
2023-01-30T13:03:26.419Z,28.62
2023-01-30T13:07:13.644Z,26.40
2023-01-30T13:10:16.728Z,28.97
2023-01-30T13:13:44.943Z,29.83
2023-01-30T13:17:09.310Z,32.92
2023-01-30T13:20:25.370Z,27.33
2023-01-30T13:23:39.719Z,27.87
2023-01-30T13:26:44.064Z,26.37
2023-01-30T13:29:48.747Z,25.02
2023-01-30T13:32:56.858Z,36.05
2023-01-30T13:36:02.265Z,29.00
2023-01-30T13:39:33.149Z,24.23
2023-01-30T13:42:35.486Z,27.50
2023-01-30T13:45:43.418Z,26.20
2023-01-30T13:49:29.652Z,28.00
2023-01-30T13:52:50.248Z,25.98
2023-01-30T13:56:39.843Z,24.48
2023-01-30T14:00:17.831Z,32.73
2023-01-30T14:03:30.525Z,29.75
2023-01-30T14:06:34.518Z,27.48
2023-01-30T14:09:37.423Z,23.95
2023-01-30T14:12:41.402Z,24.65
2023-01-30T14:16:07.494Z,25.70
2023-01-30T14:19:37.683Z,26.60
2023-01-30T14:23:29.774Z,28.83
2023-01-30T14:26:50.601Z,26.35
2023-01-30T14:29:54.838Z,25.80
2023-01-30T14:33:02.283Z,34.63
2023-01-30T14:36:04.913Z,28.65
2023-01-30T14:39:38.862Z,28.70
2023-01-30T14:42:41.612Z,28.38
2023-01-30T14:45:58.449Z,26.62
2023-01-30T14:49:13.525Z,27.07
2023-01-30T14:52:38.027Z,25.62
2023-01-30T14:55:40.824Z,25.95
2023-01-30T14:59:02.823Z,24.00
2023-01-30T15:02:14.677Z,24.73
2023-01-30T15:05:26.327Z,24.43
2023-01-30T15:08:29.111Z,29.08
2023-01-30T15:11:34.742Z,28.45
2023-01-30T15:15:19.184Z,26.17
2023-01-30T15:18:49.148Z,25.60
2023-01-30T15:22:04.050Z,27.47
2023-01-30T15:25:33.523Z,27.37
2023-01-30T15:29:08.807Z,25.40
2023-01-30T15:32:23.898Z,29.02
2023-01-30T15:35:28.341Z,27.67
2023-01-30T15:38:33.269Z,26.53
2023-01-30T15:41:42.874Z,36.20
2023-01-30T15:45:21.393Z,23.17
2023-01-30T15:48:50.061Z,24.30
2023-01-30T15:51:53.513Z,22.65
2023-01-30T15:54:59.852Z,28.60
2023-01-30T15:58:20.745Z,27.55
2023-01-30T16:01:23.961Z,34.58
2023-01-30T16:04:30.005Z,29.70
2023-01-30T16:07:33.232Z,27.33
2023-01-30T16:10:44.742Z,25.87
2023-01-30T16:13:47.158Z,25.55
2023-01-30T16:16:59.298Z,29.50
2023-01-30T16:20:02.987Z,30.50
2023-01-30T16:23:23.814Z,27.10
2023-01-30T16:26:27.668Z,25.03
2023-01-30T16:29:33.578Z,26.23
2023-01-30T16:32:36.787Z,20.88
2023-01-30T16:35:45.887Z,25.35
2023-01-30T16:38:50.284Z,23.92
2023-01-30T16:41:57.288Z,30.57
2023-01-30T16:45:19.666Z,26.65
2023-01-30T16:48:33.619Z,28.08
2023-01-30T16:51:36.107Z,32.15
2023-01-30T16:54:41.263Z,30.37
2023-01-30T16:58:00.848Z,24.90
2023-01-30T17:01:07.073Z,28.98
2023-01-30T17:04:18.933Z,26.00
2023-01-30T17:07:35.162Z,26.05
2023-01-30T17:10:37.477Z,26.67
2023-01-30T17:13:43.051Z,27.27
2023-01-30T17:16:46.711Z,27.20
2023-01-30T17:19:49.416Z,22.85
2023-01-30T17:22:57.780Z,16.95
2023-01-30T17:26:01.047Z,21.55
2023-01-30T17:29:03.484Z,15.67
2023-01-30T17:32:11.528Z,17.75
2023-01-30T17:35:14.074Z,18.92
2023-01-30T17:38:16.811Z,24.40
2023-01-30T17:41:20.727Z,13.23
2023-01-30T17:44:23.565Z,21.27
2023-01-30T17:47:25.929Z,14.52
2023-01-30T17:50:28.672Z,26.00
2023-01-30T17:53:31.091Z,14.18
2023-01-30T17:56:38.320Z,25.55
2023-01-30T17:59:40.875Z,24.40
2023-01-30T18:02:43.648Z,21.50
2023-01-30T18:05:46.477Z,23.08
2023-01-30T18:08:48.892Z,23.60
2023-01-30T18:11:51.820Z,20.90
2023-01-30T18:14:54.203Z,19.17
2023-01-30T18:17:56.981Z,18.10
2023-01-30T18:20:59.337Z,22.27
2023-01-30T18:24:02.701Z,18.27
2023-01-30T18:27:05.084Z,17.50
2023-01-30T18:30:08.290Z,17.50
2023-01-30T18:33:10.625Z,20.95
2023-01-30T18:36:16.230Z,16.92
2023-01-30T18:39:18.651Z,20.85
2023-01-30T18:42:21.392Z,18.95
2023-01-30T18:45:23.725Z,19.43
2023-01-30T18:48:26.333Z,21.85
2023-01-30T18:51:34.130Z,22.75
2023-01-30T18:54:37.593Z,21.15
2023-01-30T18:57:40.040Z,19.23
2023-01-30T19:00:42.681Z,18.70
2023-01-30T19:03:45.097Z,16.35
2023-01-30T19:06:49.286Z,16.95
2023-01-30T19:09:51.651Z,17.90
2023-01-30T19:13:12.863Z,14.30
2023-01-30T19:16:15.224Z,16.40
2023-01-30T19:19:18.471Z,13.40
2023-01-30T19:22:21.257Z,18.83
2023-01-30T19:25:23.935Z,14.35
2023-01-30T19:28:27.080Z,14.25
2023-01-30T19:31:29.976Z,16.30
2023-01-30T19:34:32.359Z,16.08
2023-01-30T19:37:35.004Z,15.38
2023-01-30T19:40:45.670Z,9.90
2023-01-30T19:43:49.258Z,8.73
2023-01-30T19:46:51.767Z,9.80
2023-01-30T19:49:55.789Z,8.30
2023-01-30T19:52:58.208Z,8.50
2023-01-30T19:56:01.289Z,8.88
2023-01-30T19:59:04.214Z,8.57
2023-01-30T20:02:06.943Z,7.90
2023-01-30T20:05:10.333Z,8.07
2023-01-30T20:08:25.616Z,10.50
2023-01-30T20:11:36.285Z,6.62
2023-01-30T20:14:38.578Z,7.70
2023-01-30T20:17:41.346Z,9.47
2023-01-30T20:20:43.713Z,10.13
2023-01-30T20:23:46.961Z,8.20
2023-01-30T20:26:49.444Z,8.40
2023-01-30T20:29:53.268Z,10.15
2023-01-30T20:32:55.722Z,8.87
2023-01-30T20:36:02.663Z,5.07
2023-01-30T20:39:07.561Z,11.70
2023-01-30T20:42:10.431Z,8.70
2023-01-30T20:45:12.877Z,9.77
2023-01-30T20:48:15.499Z,9.50
2023-01-30T20:51:20.219Z,7.45
2023-01-30T20:54:24.412Z,5.78
2023-01-30T20:57:27.318Z,10.05
2023-01-30T21:00:30.215Z,8.13
2023-01-30T21:03:32.628Z,9.43
2023-01-30T21:06:44.219Z,6.97
2023-01-30T21:09:47.847Z,7.03
2023-01-30T21:12:52.674Z,9.52
2023-01-30T21:16:05.159Z,7.07
2023-01-30T21:19:12.940Z,5.33
2023-01-30T21:22:16.634Z,7.93
2023-01-30T21:25:20.174Z,6.87
2023-01-30T21:28:22.938Z,7.57
2023-01-30T21:31:27.733Z,6.85
2023-01-30T21:34:30.176Z,7.90
2023-01-30T21:37:51.692Z,7.37
2023-01-30T21:41:12.804Z,7.43
2023-01-30T21:44:15.537Z,7.85
2023-01-30T21:47:17.884Z,9.23
2023-01-30T21:50:20.984Z,7.23
2023-01-30T21:53:23.463Z,8.60
2023-01-30T21:56:27.515Z,7.12
2023-01-30T21:59:31.486Z,7.15
2023-01-30T22:02:34.074Z,8.57
2023-01-30T22:05:36.952Z,9.70
2023-01-30T22:08:42.654Z,7.97
2023-01-30T22:11:46.270Z,7.43
2023-01-30T22:14:48.815Z,7.03
2023-01-30T22:17:51.726Z,6.50
2023-01-30T22:20:54.416Z,9.23
2023-01-30T22:23:58.215Z,8.55
2023-01-30T22:27:00.553Z,7.80
2023-01-30T22:30:03.550Z,8.38
2023-01-30T22:33:05.912Z,7.47
2023-01-30T22:36:08.763Z,7.77
2023-01-30T22:39:11.219Z,7.30
2023-01-30T22:42:13.867Z,7.10
2023-01-30T22:45:16.565Z,8.35
2023-01-30T22:48:19.550Z,6.25
2023-01-30T22:51:24.412Z,10.40
2023-01-30T22:54:27.537Z,7.70
2023-01-30T22:57:29.838Z,6.72
2023-01-30T23:00:32.499Z,6.47
2023-01-30T23:03:36.006Z,4.70
2023-01-30T23:06:39.499Z,4.67
2023-01-30T23:09:41.827Z,5.55
2023-01-30T23:13:03.060Z,7.70
2023-01-30T23:16:06.664Z,4.95
2023-01-30T23:19:11.916Z,6.03
2023-01-30T23:22:14.220Z,5.93
2023-01-30T23:25:16.828Z,7.32
2023-01-30T23:28:19.186Z,7.53
2023-01-30T23:31:24.293Z,7.53
2023-01-30T23:34:26.723Z,7.18
2023-01-30T23:37:49.996Z,6.10
2023-01-30T23:40:52.429Z,6.10
2023-01-30T23:43:56.067Z,4.97
2023-01-30T23:46:58.414Z,5.18
2023-01-30T23:50:01.036Z,9.82
2023-01-30T23:53:04.673Z,6.40
2023-01-30T23:56:08.132Z,7.87
2023-01-30T23:59:11.689Z,6.78
